createdAt,value
2019-03-27T00:00:09.376Z,13.43
2019-03-27T00:02:39.309Z,10.60
2019-03-27T00:05:09.493Z,16.30
2019-03-27T00:07:39.809Z,10.87
2019-03-27T00:10:09.954Z,12.33
2019-03-27T00:12:40.268Z,12.00
2019-03-27T00:15:13.134Z,13.67
2019-03-27T00:17:42.804Z,11.67
2019-03-27T00:20:12.740Z,10.73
2019-03-27T00:22:43.310Z,9.40
2019-03-27T00:25:13.548Z,16.37
2019-03-27T00:27:43.761Z,16.23
2019-03-27T00:30:14.061Z,12.17
2019-03-27T00:32:43.975Z,14.80
2019-03-27T00:35:14.654Z,14.30
2019-03-27T00:37:45.294Z,12.10
2019-03-27T00:40:15.554Z,11.20
2019-03-27T00:42:46.237Z,11.77
2019-03-27T00:45:26.608Z,18.87
2019-03-27T00:47:48.459Z,12.40
2019-03-27T00:50:37.863Z,15.17
2019-03-27T00:53:08.149Z,10.30
2019-03-27T00:55:38.868Z,10.00
2019-03-27T00:58:09.417Z,11.87
2019-03-27T01:01:06.015Z,12.20
2019-03-27T01:03:36.610Z,10.83
2019-03-27T01:06:06.851Z,11.83
2019-03-27T01:08:36.832Z,10.03
2019-03-27T01:11:07.174Z,15.30
2019-03-27T01:13:37.563Z,10.67
2019-03-27T01:16:08.089Z,14.07
2019-03-27T01:18:39.280Z,9.23
2019-03-27T01:21:28.159Z,13.87
2019-03-27T01:23:58.513Z,12.90
2019-03-27T01:26:28.775Z,14.80
2019-03-27T01:28:58.768Z,9.00
2019-03-27T01:31:28.646Z,14.20
2019-03-27T01:33:58.943Z,9.73
2019-03-27T01:36:29.126Z,13.17
2019-03-27T01:38:59.019Z,9.10
2019-03-27T01:41:29.417Z,13.47
2019-03-27T01:43:59.694Z,13.17
2019-03-27T01:46:29.943Z,11.63
2019-03-27T01:49:00.872Z,8.53
2019-03-27T01:51:31.049Z,12.90
2019-03-27T01:54:01.063Z,15.57
2019-03-27T01:56:31.368Z,11.77
2019-03-27T01:59:01.587Z,12.77
2019-03-27T02:01:32.139Z,16.03
2019-03-27T02:04:02.485Z,9.63
2019-03-27T02:06:32.376Z,14.57
2019-03-27T02:09:02.691Z,14.20
2019-03-27T02:11:32.616Z,11.43
2019-03-27T02:14:02.535Z,14.90
2019-03-27T02:16:33.118Z,16.17
2019-03-27T02:19:03.793Z,12.37
2019-03-27T02:21:34.028Z,23.93
2019-03-27T02:24:04.909Z,12.93
2019-03-27T02:26:35.124Z,14.90
2019-03-27T02:29:05.395Z,12.13
2019-03-27T02:31:35.307Z,17.20
2019-03-27T02:34:05.609Z,11.97
2019-03-27T02:36:35.881Z,13.70
2019-03-27T02:39:06.030Z,15.47
2019-03-27T02:41:36.733Z,18.77
2019-03-27T02:44:06.661Z,20.57
2019-03-27T02:46:36.938Z,14.57
2019-03-27T02:49:07.777Z,21.93
2019-03-27T02:51:39.345Z,15.20
2019-03-27T02:54:09.527Z,11.17
2019-03-27T02:56:39.802Z,17.13
2019-03-27T02:59:10.009Z,17.60
2019-03-27T03:01:40.701Z,16.00
2019-03-27T03:04:11.004Z,12.93
2019-03-27T03:06:40.852Z,16.63
2019-03-27T03:09:10.770Z,23.17
2019-03-27T03:11:41.057Z,19.17
2019-03-27T03:14:11.604Z,22.77
2019-03-27T03:16:43.303Z,23.37
2019-03-27T03:19:14.046Z,21.20
2019-03-27T03:21:44.906Z,19.40
2019-03-27T03:24:14.821Z,18.43
2019-03-27T03:26:44.881Z,19.00
2019-03-27T03:29:14.788Z,20.83
2019-03-27T03:31:45.458Z,22.80
2019-03-27T03:34:15.764Z,21.63
2019-03-27T03:36:46.022Z,21.00
2019-03-27T03:39:16.388Z,20.90
2019-03-27T03:41:47.042Z,24.40
2019-03-27T03:44:17.896Z,20.70
2019-03-27T03:46:59.601Z,26.87
2019-03-27T03:49:20.855Z,17.93
2019-03-27T03:51:51.499Z,20.13
2019-03-27T03:54:21.746Z,18.40
2019-03-27T03:56:53.218Z,25.90
2019-03-27T03:59:24.570Z,21.67
2019-03-27T04:01:55.380Z,25.93
2019-03-27T04:04:44.486Z,20.17
2019-03-27T04:07:14.554Z,29.67
2019-03-27T04:09:44.967Z,19.60
2019-03-27T04:12:14.847Z,23.90
2019-03-27T04:14:45.541Z,19.30
2019-03-27T04:17:17.755Z,23.13
2019-03-27T04:19:48.324Z,27.80
2019-03-27T04:22:18.712Z,24.23
2019-03-27T04:24:48.571Z,23.60
2019-03-27T04:27:18.865Z,29.37
2019-03-27T04:29:48.769Z,23.10
2019-03-27T04:32:19.164Z,25.23
2019-03-27T04:34:49.828Z,23.40
2019-03-27T04:37:20.038Z,27.83
2019-03-27T04:39:51.086Z,28.73
2019-03-27T04:42:22.388Z,30.03
2019-03-27T04:44:53.048Z,26.90
2019-03-27T04:47:32.134Z,21.10
2019-03-27T04:49:55.034Z,21.70
2019-03-27T04:52:24.964Z,23.70
2019-03-27T04:54:56.079Z,27.73
2019-03-27T04:57:26.359Z,25.80
2019-03-27T04:59:56.784Z,29.53
2019-03-27T05:02:27.185Z,29.50
2019-03-27T05:04:58.240Z,26.57
2019-03-27T05:07:29.166Z,24.33
2019-03-27T05:10:00.341Z,19.67
2019-03-27T05:12:30.585Z,26.97
2019-03-27T05:15:00.924Z,23.40
2019-03-27T05:17:44.756Z,24.27
2019-03-27T05:20:03.011Z,22.37
2019-03-27T05:22:33.232Z,22.63
2019-03-27T05:25:03.121Z,24.10
2019-03-27T05:27:36.134Z,25.20
2019-03-27T05:30:05.452Z,24.20
2019-03-27T05:32:36.276Z,27.00
2019-03-27T05:35:07.122Z,18.03
2019-03-27T05:37:37.417Z,26.37
2019-03-27T05:40:08.341Z,14.83
2019-03-27T05:42:38.220Z,21.63
2019-03-27T05:45:08.262Z,20.23
2019-03-27T05:47:38.805Z,18.40
2019-03-27T05:50:09.051Z,18.30
2019-03-27T05:52:39.982Z,18.83
2019-03-27T05:55:09.920Z,13.57
2019-03-27T05:57:39.776Z,17.00
2019-03-27T06:00:10.658Z,20.10
2019-03-27T06:02:41.410Z,16.90
2019-03-27T06:05:11.322Z,20.00
2019-03-27T06:07:41.653Z,12.67
2019-03-27T06:10:11.900Z,17.40
2019-03-27T06:12:42.159Z,12.33
2019-03-27T06:15:12.094Z,11.17
2019-03-27T06:17:42.045Z,12.90
2019-03-27T06:20:12.292Z,18.90
2019-03-27T06:22:42.600Z,13.83
2019-03-27T06:25:12.609Z,16.67
2019-03-27T06:27:42.774Z,17.50
2019-03-27T06:30:13.036Z,30.40
2019-03-27T06:32:43.392Z,12.97
2019-03-27T06:35:13.618Z,23.33
2019-03-27T06:37:43.928Z,17.37
2019-03-27T06:40:14.450Z,13.60
2019-03-27T06:42:45.504Z,16.37
2019-03-27T06:45:16.050Z,21.77
2019-03-27T06:47:47.031Z,13.83
2019-03-27T06:50:17.283Z,14.87
2019-03-27T06:52:48.051Z,18.03
2019-03-27T06:55:18.555Z,16.13
2019-03-27T06:57:49.133Z,18.57
2019-03-27T07:00:20.931Z,15.20
2019-03-27T07:02:51.128Z,16.00
2019-03-27T07:05:21.627Z,12.47
2019-03-27T07:07:52.064Z,13.50
2019-03-27T07:10:22.860Z,12.27
2019-03-27T07:12:53.308Z,14.43
2019-03-27T07:15:24.115Z,11.20
2019-03-27T07:17:54.834Z,12.03
2019-03-27T07:20:25.169Z,15.67
2019-03-27T07:22:55.925Z,11.50
2019-03-27T07:25:26.602Z,13.93
2019-03-27T07:27:56.844Z,13.03
2019-03-27T07:30:27.393Z,14.83
2019-03-27T07:32:57.723Z,11.53
2019-03-27T07:35:28.323Z,11.77
2019-03-27T07:37:58.567Z,12.70
2019-03-27T07:40:28.593Z,12.87
2019-03-27T07:42:59.007Z,8.90
2019-03-27T07:45:29.340Z,11.53
2019-03-27T07:47:59.222Z,7.80
2019-03-27T07:50:29.206Z,13.20
2019-03-27T07:52:59.451Z,8.10
2019-03-27T07:55:29.302Z,11.13
2019-03-27T07:57:59.572Z,9.60
2019-03-27T08:00:29.459Z,11.40
2019-03-27T08:02:59.649Z,12.50
2019-03-27T08:05:30.337Z,6.53
2019-03-27T08:08:01.119Z,6.10
2019-03-27T08:10:30.978Z,9.10
2019-03-27T08:13:01.754Z,7.60
2019-03-27T08:15:31.651Z,10.67
2019-03-27T08:18:02.443Z,9.00
2019-03-27T08:20:32.799Z,7.83
2019-03-27T08:23:02.677Z,11.27
2019-03-27T08:25:32.586Z,7.93
2019-03-27T08:28:03.243Z,11.40
2019-03-27T08:30:33.091Z,7.80
2019-03-27T08:33:03.020Z,8.50
2019-03-27T08:35:33.336Z,8.27
2019-03-27T08:38:03.542Z,6.57
2019-03-27T08:40:34.248Z,7.50
2019-03-27T08:43:04.793Z,10.07
2019-03-27T08:45:35.826Z,5.97
2019-03-27T08:48:06.427Z,12.07
2019-03-27T08:50:36.666Z,7.23
2019-03-27T08:53:07.354Z,11.67
2019-03-27T08:55:38.011Z,6.53
2019-03-27T08:58:08.324Z,6.20
2019-03-27T09:00:54.437Z,6.30
2019-03-27T09:03:25.051Z,8.90
2019-03-27T09:05:55.716Z,9.83
2019-03-27T09:08:26.066Z,8.70
2019-03-27T09:10:56.343Z,14.33
2019-03-27T09:13:26.585Z,5.80
2019-03-27T09:15:57.602Z,6.00
2019-03-27T09:18:28.234Z,7.83
2019-03-27T09:20:59.243Z,8.03
2019-03-27T09:23:29.583Z,6.63
2019-03-27T09:25:59.813Z,8.40
2019-03-27T09:28:30.446Z,7.10
2019-03-27T09:31:00.870Z,6.30
2019-03-27T09:33:31.340Z,4.70
2019-03-27T09:36:01.986Z,4.73
2019-03-27T09:38:32.321Z,4.73
2019-03-27T09:41:02.534Z,5.43
2019-03-27T09:43:32.799Z,9.53
2019-03-27T09:46:03.562Z,4.13
2019-03-27T09:48:34.310Z,4.90
2019-03-27T09:51:04.193Z,7.30
2019-03-27T09:53:34.404Z,10.37
2019-03-27T09:56:18.011Z,4.70
2019-03-27T09:58:37.245Z,7.00
2019-03-27T10:01:07.986Z,5.70
2019-03-27T10:03:37.855Z,4.60
2019-03-27T10:06:08.645Z,4.27
2019-03-27T10:08:39.715Z,5.27
2019-03-27T10:11:09.613Z,6.47
2019-03-27T10:13:39.486Z,9.57
2019-03-27T10:16:09.864Z,6.43
2019-03-27T10:18:41.491Z,9.63
2019-03-27T10:21:12.943Z,6.17
2019-03-27T10:23:43.397Z,6.33
2019-03-27T10:26:13.490Z,6.80
2019-03-27T10:28:43.750Z,6.20
2019-03-27T10:31:14.047Z,4.40
2019-03-27T10:33:44.358Z,5.53
2019-03-27T10:36:15.670Z,4.80
2019-03-27T10:38:46.221Z,3.00
2019-03-27T10:41:16.891Z,5.27
2019-03-27T10:43:47.441Z,4.23
2019-03-27T10:46:18.216Z,4.73
2019-03-27T10:48:52.825Z,4.00
2019-03-27T10:51:20.570Z,2.23
2019-03-27T10:53:50.810Z,2.43
2019-03-27T10:56:20.723Z,2.93
2019-03-27T10:58:51.023Z,3.77
2019-03-27T11:01:21.409Z,4.60
2019-03-27T11:03:51.451Z,5.07
2019-03-27T11:06:21.526Z,4.37
2019-03-27T11:08:52.056Z,4.67
2019-03-27T11:11:41.370Z,4.83
2019-03-27T11:14:11.685Z,6.33
2019-03-27T11:16:42.189Z,3.80
2019-03-27T11:19:13.059Z,2.50
2019-03-27T11:21:44.319Z,5.50
2019-03-27T11:24:14.866Z,2.27
2019-03-27T11:26:44.774Z,3.33
2019-03-27T11:29:14.639Z,2.17
2019-03-27T11:31:45.050Z,1.63
2019-03-27T11:34:15.963Z,2.17
2019-03-27T11:36:46.355Z,1.70
2019-03-27T11:39:17.222Z,2.73
2019-03-27T11:41:47.581Z,3.87
2019-03-27T11:44:18.081Z,2.17
2019-03-27T11:46:48.370Z,2.70
2019-03-27T11:49:19.417Z,3.10
2019-03-27T11:51:50.101Z,2.10
2019-03-27T11:54:20.454Z,2.80
2019-03-27T11:56:50.790Z,4.27
2019-03-27T11:59:21.554Z,4.80
2019-03-27T12:01:52.250Z,4.87
2019-03-27T12:04:23.213Z,7.53
2019-03-27T12:06:53.148Z,6.17
2019-03-27T12:09:23.123Z,6.13
2019-03-27T12:11:53.411Z,3.90
2019-03-27T12:14:23.623Z,3.20
2019-03-27T12:16:53.861Z,3.50
2019-03-27T12:19:24.891Z,5.90
2019-03-27T12:21:55.061Z,3.87
2019-03-27T12:24:25.452Z,7.07
2019-03-27T12:26:55.371Z,9.10
2019-03-27T12:29:25.629Z,8.37
2019-03-27T12:31:55.547Z,4.37
2019-03-27T12:34:25.962Z,6.57
2019-03-27T12:36:55.840Z,5.70
2019-03-27T12:39:26.430Z,4.70
2019-03-27T12:41:57.007Z,6.10
2019-03-27T12:44:26.936Z,6.20
2019-03-27T12:46:57.073Z,3.93
2019-03-27T12:49:27.353Z,7.67
2019-03-27T12:51:58.225Z,4.10
2019-03-27T12:54:28.982Z,4.40
2019-03-27T12:56:59.243Z,4.30
2019-03-27T12:59:29.474Z,6.57
2019-03-27T13:01:59.752Z,6.43
2019-03-27T13:04:29.652Z,4.40
2019-03-27T13:07:00.250Z,4.70
2019-03-27T13:09:30.129Z,3.93
2019-03-27T13:12:00.628Z,4.20
2019-03-27T13:14:31.549Z,5.73
2019-03-27T13:17:02.185Z,4.50
2019-03-27T13:19:32.882Z,7.03
2019-03-27T13:22:02.832Z,4.87
2019-03-27T13:24:33.165Z,6.80
2019-03-27T13:27:03.406Z,5.87
2019-03-27T13:29:33.703Z,4.40
2019-03-27T13:32:04.083Z,5.10
2019-03-27T13:34:33.986Z,5.70
2019-03-27T13:37:04.537Z,6.90
2019-03-27T13:39:35.046Z,5.90
2019-03-27T13:42:04.958Z,4.90
2019-03-27T13:44:37.300Z,8.27
2019-03-27T13:47:07.672Z,5.57
2019-03-27T13:49:38.468Z,5.47
2019-03-27T13:52:08.828Z,6.37
2019-03-27T13:54:39.590Z,7.40
2019-03-27T13:57:10.537Z,6.40
2019-03-27T13:59:40.822Z,6.70
2019-03-27T14:02:11.178Z,8.00
2019-03-27T14:04:41.721Z,8.30
2019-03-27T14:07:12.111Z,7.30
2019-03-27T14:09:42.030Z,7.90
2019-03-27T14:12:12.311Z,6.73
2019-03-27T14:14:50.393Z,7.30
2019-03-27T14:17:15.381Z,7.80
2019-03-27T14:19:45.966Z,8.83
2019-03-27T14:22:15.841Z,10.63
2019-03-27T14:24:46.504Z,8.27
2019-03-27T14:27:17.487Z,8.40
2019-03-27T14:29:47.746Z,10.73
2019-03-27T14:32:18.028Z,10.87
2019-03-27T14:34:48.266Z,9.80
2019-03-27T14:37:18.535Z,11.13
2019-03-27T14:39:48.411Z,8.90
2019-03-27T14:42:21.467Z,8.47
2019-03-27T14:44:52.374Z,9.37
2019-03-27T14:47:22.732Z,7.80
2019-03-27T14:49:52.903Z,9.27
2019-03-27T14:52:23.129Z,6.53
2019-03-27T14:54:54.631Z,6.30
2019-03-27T14:57:24.778Z,6.23
2019-03-27T14:59:55.293Z,5.80
2019-03-27T15:02:25.564Z,7.20
2019-03-27T15:04:55.546Z,9.50
2019-03-27T15:07:26.392Z,6.83
2019-03-27T15:09:57.063Z,6.67
2019-03-27T15:12:27.046Z,6.87
2019-03-27T15:14:57.039Z,5.07
2019-03-27T15:17:27.750Z,4.23
2019-03-27T15:19:58.059Z,8.00
2019-03-27T15:22:28.004Z,4.93
2019-03-27T15:24:58.323Z,6.90
2019-03-27T15:27:29.187Z,4.17
2019-03-27T15:29:59.258Z,4.63
2019-03-27T15:32:29.277Z,4.80
2019-03-27T15:34:59.269Z,4.93
2019-03-27T15:37:29.198Z,3.97
2019-03-27T15:39:59.188Z,4.03
2019-03-27T15:42:29.898Z,3.93
2019-03-27T15:45:03.808Z,4.23
2019-03-27T15:47:34.069Z,6.20
2019-03-27T15:50:04.456Z,4.90
2019-03-27T15:52:36.751Z,5.33
2019-03-27T15:55:09.537Z,4.67
2019-03-27T15:57:39.767Z,4.30
2019-03-27T16:00:29.693Z,4.77
2019-03-27T16:03:01.184Z,4.13
2019-03-27T16:05:31.836Z,4.93
2019-03-27T16:08:01.799Z,5.00
2019-03-27T16:10:31.903Z,4.93
2019-03-27T16:13:03.077Z,5.20
2019-03-27T16:15:36.820Z,4.83
2019-03-27T16:18:05.482Z,4.77
2019-03-27T16:20:35.372Z,4.73
2019-03-27T16:23:05.612Z,5.00
2019-03-27T16:25:35.617Z,4.50
2019-03-27T16:28:06.132Z,4.13
2019-03-27T16:30:36.410Z,6.23
2019-03-27T16:33:06.662Z,4.90
2019-03-27T16:35:36.514Z,4.80
2019-03-27T16:38:06.730Z,5.17
2019-03-27T16:40:49.386Z,4.80
2019-03-27T16:43:20.023Z,6.40
2019-03-27T16:45:50.849Z,5.57
2019-03-27T16:48:21.351Z,5.50
2019-03-27T16:50:51.987Z,6.00
2019-03-27T16:53:22.348Z,5.80
2019-03-27T16:55:52.414Z,6.47
2019-03-27T16:58:23.338Z,6.47
2019-03-27T17:01:00.238Z,6.50
2019-03-27T17:03:30.131Z,6.40
2019-03-27T17:06:00.784Z,6.33
2019-03-27T17:08:30.659Z,6.87
2019-03-27T17:11:01.017Z,7.60
2019-03-27T17:13:30.955Z,6.37
2019-03-27T17:16:00.990Z,8.10
2019-03-27T17:18:30.884Z,7.40
2019-03-27T17:21:01.188Z,9.47
2019-03-27T17:23:31.425Z,8.53
2019-03-27T17:26:01.834Z,7.40
2019-03-27T17:28:32.121Z,7.60
2019-03-27T17:31:02.176Z,8.27
2019-03-27T17:33:32.253Z,8.60
2019-03-27T17:36:02.140Z,8.07
2019-03-27T17:38:33.016Z,9.80
2019-03-27T17:41:02.877Z,10.03
2019-03-27T17:43:32.825Z,8.30
2019-03-27T17:46:03.154Z,7.60
2019-03-27T17:48:33.124Z,8.40
2019-03-27T17:51:03.034Z,11.03
2019-03-27T17:53:32.941Z,9.40
2019-03-27T17:56:03.171Z,10.23
2019-03-27T17:58:33.135Z,10.03
2019-03-27T18:01:04.824Z,8.80
2019-03-27T18:03:35.527Z,10.00
2019-03-27T18:06:06.126Z,13.27
2019-03-27T18:08:36.747Z,8.97
2019-03-27T18:11:08.204Z,11.33
2019-03-27T18:13:38.690Z,10.00
2019-03-27T18:16:08.618Z,11.17
2019-03-27T18:18:38.804Z,9.30
2019-03-27T18:21:08.673Z,10.13
2019-03-27T18:23:45.680Z,17.40
2019-03-27T18:26:10.796Z,13.93
2019-03-27T18:28:40.683Z,9.70
2019-03-27T18:31:10.953Z,9.60
2019-03-27T18:33:41.136Z,9.20
2019-03-27T18:36:11.477Z,11.17
2019-03-27T18:38:42.136Z,9.83
2019-03-27T18:41:12.240Z,11.80
2019-03-27T18:43:42.838Z,9.20
2019-03-27T18:46:14.029Z,12.83
2019-03-27T18:48:55.833Z,10.43
2019-03-27T18:51:26.100Z,12.50
2019-03-27T18:53:59.843Z,10.63
2019-03-27T18:56:27.822Z,10.50
2019-03-27T18:58:57.817Z,13.20
2019-03-27T19:01:27.656Z,9.90
2019-03-27T19:03:59.315Z,9.57
2019-03-27T19:06:29.202Z,9.83
2019-03-27T19:08:59.800Z,10.53
2019-03-27T19:11:29.683Z,9.37
2019-03-27T19:13:59.663Z,11.00
2019-03-27T19:16:29.929Z,13.00
2019-03-27T19:19:00.030Z,15.43
2019-03-27T19:21:48.773Z,13.27
2019-03-27T19:24:19.104Z,13.40
2019-03-27T19:26:49.359Z,11.87
2019-03-27T19:29:19.687Z,13.00
2019-03-27T19:31:49.969Z,10.13
2019-03-27T19:34:21.277Z,9.80
2019-03-27T19:36:51.218Z,14.20
2019-03-27T19:39:21.438Z,10.70
2019-03-27T19:41:51.414Z,10.70
2019-03-27T19:44:21.973Z,14.57
2019-03-27T19:46:51.881Z,12.60
2019-03-27T19:49:22.207Z,11.23
2019-03-27T19:52:11.019Z,12.73
2019-03-27T19:54:40.908Z,11.47
2019-03-27T19:57:10.835Z,10.93
2019-03-27T19:59:41.257Z,11.17
2019-03-27T20:02:12.000Z,11.90
2019-03-27T20:04:42.246Z,11.57
2019-03-27T20:07:12.147Z,12.20
2019-03-27T20:09:42.049Z,12.27
2019-03-27T20:12:12.018Z,13.73
2019-03-27T20:14:42.612Z,12.43
2019-03-27T20:17:12.965Z,10.50
2019-03-27T20:19:42.953Z,13.37
2019-03-27T20:22:12.987Z,15.63
2019-03-27T20:24:43.249Z,11.43
2019-03-27T20:27:13.222Z,12.73
2019-03-27T20:29:46.436Z,12.40
2019-03-27T20:32:15.489Z,12.60
2019-03-27T20:34:46.188Z,9.53
2019-03-27T20:37:16.178Z,16.00
2019-03-27T20:39:46.101Z,11.60
2019-03-27T20:42:16.443Z,13.23
2019-03-27T20:44:47.120Z,12.57
2019-03-27T20:47:17.105Z,14.13
2019-03-27T20:49:47.038Z,11.60
2019-03-27T20:52:17.343Z,11.87
2019-03-27T20:54:54.989Z,12.53
2019-03-27T20:57:18.781Z,15.67
2019-03-27T20:59:49.195Z,15.23
2019-03-27T21:02:20.453Z,16.43
2019-03-27T21:04:51.066Z,12.80
2019-03-27T21:07:24.586Z,16.87
2019-03-27T21:09:53.746Z,12.07
2019-03-27T21:12:23.656Z,12.53
2019-03-27T21:14:53.933Z,16.90
2019-03-27T21:17:24.177Z,20.00
2019-03-27T21:19:54.529Z,13.83
2019-03-27T21:22:24.980Z,12.87
2019-03-27T21:25:07.612Z,17.70
2019-03-27T21:27:26.806Z,21.50
2019-03-27T21:29:56.674Z,18.33
2019-03-27T21:32:26.643Z,16.90
2019-03-27T21:34:56.618Z,18.57
2019-03-27T21:37:26.844Z,12.53
2019-03-27T21:39:56.777Z,13.30
2019-03-27T21:42:26.776Z,12.60
2019-03-27T21:44:56.822Z,18.43
2019-03-27T21:47:26.874Z,17.73
2019-03-27T21:49:57.417Z,14.40
2019-03-27T21:52:27.689Z,13.93
2019-03-27T21:54:57.646Z,13.80
2019-03-27T21:57:47.068Z,11.70
2019-03-27T22:00:29.091Z,14.63
2019-03-27T22:02:59.067Z,19.57
2019-03-27T22:05:28.940Z,15.90
2019-03-27T22:07:58.877Z,17.57
2019-03-27T22:10:29.182Z,19.73
2019-03-27T22:12:59.086Z,17.60
2019-03-27T22:15:29.485Z,14.87
2019-03-27T22:17:59.378Z,17.20
2019-03-27T22:20:29.345Z,12.23
2019-03-27T22:22:59.638Z,15.57
2019-03-27T22:25:35.855Z,16.43
2019-03-27T22:28:01.151Z,17.93
2019-03-27T22:30:31.504Z,14.40
2019-03-27T22:33:02.086Z,18.37
2019-03-27T22:35:31.987Z,17.47
2019-03-27T22:38:02.724Z,11.30
2019-03-27T22:40:32.956Z,17.67
2019-03-27T22:43:03.683Z,11.10
2019-03-27T22:45:33.580Z,15.40
2019-03-27T22:48:03.840Z,12.27
2019-03-27T22:50:34.144Z,17.50
2019-03-27T22:53:04.592Z,16.00
2019-03-27T22:55:48.348Z,15.23
2019-03-27T22:58:06.413Z,14.87
2019-03-27T23:00:50.014Z,21.10
2019-03-27T23:03:20.345Z,16.03
2019-03-27T23:05:50.230Z,16.60
2019-03-27T23:08:20.154Z,16.37
2019-03-27T23:10:50.421Z,11.90
2019-03-27T23:13:20.356Z,10.87
2019-03-27T23:15:51.275Z,14.30
2019-03-27T23:18:21.181Z,16.53
2019-03-27T23:20:51.531Z,16.23
2019-03-27T23:23:21.895Z,12.70
2019-03-27T23:26:02.413Z,24.97
2019-03-27T23:28:24.152Z,16.87
2019-03-27T23:30:54.504Z,22.27
2019-03-27T23:33:24.391Z,17.17
2019-03-27T23:35:54.649Z,17.57
2019-03-27T23:38:24.953Z,17.20
2019-03-27T23:40:55.718Z,16.13
2019-03-27T23:43:25.687Z,15.30
2019-03-27T23:45:56.036Z,15.20
2019-03-27T23:48:25.986Z,16.53
2019-03-27T23:50:56.206Z,16.10
2019-03-27T23:53:26.545Z,16.57
2019-03-27T23:55:58.895Z,17.90
2019-03-27T23:58:29.241Z,16.47
